createdAt,value
2019-05-02T00:00:51.090Z,21.75
2019-05-02T00:03:20.782Z,22.67
2019-05-02T00:05:49.291Z,22.87
2019-05-02T00:08:17.748Z,18.85
2019-05-02T00:10:47.492Z,19.90
2019-05-02T00:13:15.936Z,21.30
2019-05-02T00:15:44.353Z,22.90
2019-05-02T00:18:12.970Z,23.77
2019-05-02T00:20:41.405Z,22.95
2019-05-02T00:23:09.922Z,21.25
2019-05-02T00:25:38.342Z,19.30
2019-05-02T00:28:07.757Z,17.55
2019-05-02T00:33:19.759Z,19.82
2019-05-02T00:35:48.164Z,20.12
2019-05-02T00:38:16.621Z,17.02
2019-05-02T00:40:46.565Z,22.10
2019-05-02T00:45:42.842Z,16.32
2019-05-02T00:48:12.944Z,22.42
2019-05-02T00:50:45.315Z,18.55
2019-05-02T00:53:12.161Z,22.87
2019-05-02T00:55:40.832Z,21.93
2019-05-02T00:58:09.274Z,24.25
2019-05-02T01:00:39.326Z,16.57
2019-05-02T01:05:38.491Z,18.87
2019-05-02T01:08:07.311Z,21.30
2019-05-02T01:10:35.739Z,19.90
2019-05-02T01:13:04.179Z,20.60
2019-05-02T01:15:32.607Z,20.48
2019-05-02T01:18:05.614Z,18.98
2019-05-02T01:20:31.134Z,19.90
2019-05-02T01:22:59.587Z,23.80
2019-05-02T01:25:28.011Z,21.57
2019-05-02T01:28:12.634Z,21.73
2019-05-02T01:30:44.506Z,23.22
2019-05-02T01:33:14.586Z,22.20
2019-05-02T01:35:44.642Z,22.35
2019-05-02T01:38:26.566Z,22.45
2019-05-02T01:40:54.783Z,23.32
2019-05-02T01:43:25.632Z,23.95
2019-05-02T01:45:54.137Z,22.50
2019-05-02T01:48:22.606Z,23.87
2019-05-02T01:50:51.027Z,23.30
2019-05-02T01:53:19.462Z,23.85
2019-05-02T01:55:51.948Z,23.60
2019-05-02T01:58:20.914Z,23.32
2019-05-02T02:00:48.060Z,22.58
2019-05-02T02:03:16.514Z,20.70
2019-05-02T02:05:44.925Z,19.32
2019-05-02T02:08:13.750Z,21.07
2019-05-02T02:10:43.814Z,23.38
2019-05-02T02:13:12.399Z,22.25
2019-05-02T02:15:40.846Z,25.85
2019-05-02T02:18:09.249Z,24.37
2019-05-02T02:21:04.466Z,21.40
2019-05-02T02:23:44.962Z,22.42
2019-05-02T02:26:15.170Z,24.27
2019-05-02T02:28:43.635Z,22.45
2019-05-02T02:31:12.056Z,25.92
2019-05-02T02:33:41.097Z,21.23
2019-05-02T02:36:10.565Z,24.05
2019-05-02T02:38:39.004Z,23.75
2019-05-02T02:41:13.077Z,22.58
2019-05-02T02:43:37.563Z,22.13
2019-05-02T02:46:10.508Z,19.62
2019-05-02T02:48:40.465Z,23.55
2019-05-02T02:51:09.291Z,22.55
2019-05-02T02:53:37.722Z,19.70
2019-05-02T02:56:07.244Z,22.52
2019-05-02T02:58:44.242Z,21.75
2019-05-02T03:01:05.765Z,22.55
2019-05-02T03:03:35.338Z,21.02
2019-05-02T03:08:45.167Z,24.50
2019-05-02T03:11:03.708Z,23.42
2019-05-02T03:13:50.803Z,22.32
2019-05-02T03:16:07.042Z,22.48
2019-05-02T03:18:40.729Z,26.30
2019-05-02T03:23:33.416Z,24.07
2019-05-02T03:26:07.701Z,23.35
2019-05-02T03:28:31.952Z,22.35
2019-05-02T03:31:00.405Z,22.90
2019-05-02T03:33:28.844Z,22.58
2019-05-02T03:35:57.295Z,19.00
2019-05-02T03:38:32.571Z,22.95
2019-05-02T03:40:55.811Z,22.52
2019-05-02T03:43:25.806Z,22.85
2019-05-02T03:45:54.420Z,21.97
2019-05-02T03:48:25.851Z,24.27
2019-05-02T03:50:52.946Z,23.05
2019-05-02T03:53:25.012Z,25.80
2019-05-02T03:55:51.832Z,20.77
2019-05-02T03:58:20.249Z,24.23
2019-05-02T04:00:55.138Z,21.55
2019-05-02T04:03:19.245Z,18.70
2019-05-02T04:05:48.080Z,20.90
2019-05-02T04:08:21.278Z,22.77
2019-05-02T04:10:52.757Z,20.25
2019-05-02T04:13:20.319Z,20.23
2019-05-02T04:15:48.726Z,19.62
2019-05-02T04:18:17.939Z,24.07
2019-05-02T04:20:49.521Z,19.25
2019-05-02T04:23:21.237Z,17.67
2019-05-02T04:28:14.547Z,17.12
2019-05-02T04:30:45.195Z,17.48
2019-05-02T04:35:40.600Z,15.30
2019-05-02T04:38:19.686Z,17.10
2019-05-02T04:40:44.265Z,18.48
2019-05-02T04:45:53.154Z,12.80
2019-05-02T04:48:08.672Z,15.83
2019-05-02T04:50:37.885Z,16.27
2019-05-02T04:53:08.602Z,14.45
2019-05-02T04:55:38.093Z,15.65
2019-05-02T04:58:08.400Z,16.02
2019-05-02T05:00:39.219Z,16.10
2019-05-02T05:03:15.213Z,16.73
2019-05-02T05:08:07.775Z,13.15
2019-05-02T05:10:44.526Z,15.20
2019-05-02T05:15:44.808Z,16.10
2019-05-02T05:20:37.903Z,15.98
2019-05-02T05:23:05.496Z,16.02
2019-05-02T05:25:47.934Z,13.43
2019-05-02T05:28:19.761Z,12.98
2019-05-02T05:33:21.335Z,10.35
2019-05-02T05:35:52.574Z,13.85
2019-05-02T05:40:50.225Z,14.05
2019-05-02T05:43:20.583Z,13.32
2019-05-02T05:45:56.080Z,16.10
2019-05-02T05:50:47.774Z,13.62
2019-05-02T05:53:17.092Z,16.05
2019-05-02T05:55:47.355Z,16.23
2019-05-02T05:58:18.672Z,12.05
2019-05-02T06:00:53.603Z,14.47
2019-05-02T06:05:47.631Z,14.43
2019-05-02T06:10:45.290Z,14.15
2019-05-02T06:13:13.678Z,16.82
2019-05-02T06:15:42.119Z,14.75
2019-05-02T06:18:10.574Z,14.95
2019-05-02T06:20:38.999Z,16.52
2019-05-02T06:23:07.442Z,18.73
2019-05-02T06:25:36.742Z,16.07
2019-05-02T06:28:06.737Z,16.05
2019-05-02T06:33:03.697Z,15.18
2019-05-02T06:35:32.120Z,15.45
2019-05-02T06:38:00.563Z,14.93
2019-05-02T06:40:28.994Z,17.35
2019-05-02T06:42:57.445Z,15.32
2019-05-02T06:45:26.031Z,15.25
2019-05-02T06:47:54.457Z,13.68
2019-05-02T06:50:24.754Z,17.40
2019-05-02T06:55:20.715Z,16.00
2019-05-02T06:57:51.609Z,15.25
2019-05-02T07:02:47.047Z,15.80
2019-05-02T07:05:15.499Z,14.13
2019-05-02T07:07:44.041Z,19.87
2019-05-02T07:10:12.481Z,17.07
2019-05-02T07:12:40.915Z,16.42
2019-05-02T07:15:11.025Z,17.35
2019-05-02T07:20:10.044Z,15.40
2019-05-02T07:22:40.447Z,16.85
2019-05-02T07:25:08.963Z,18.85
2019-05-02T07:27:39.182Z,19.82
2019-05-02T07:30:07.909Z,18.12
2019-05-02T07:32:36.330Z,16.27
2019-05-02T07:35:06.293Z,19.27
2019-05-02T07:37:34.746Z,21.27
2019-05-02T07:40:04.839Z,17.77
2019-05-02T07:45:09.473Z,20.02
2019-05-02T07:50:10.526Z,21.42
2019-05-02T07:55:09.817Z,23.07
2019-05-02T07:57:36.602Z,23.07
2019-05-02T08:00:09.905Z,19.25
2019-05-02T08:02:38.311Z,22.70
2019-05-02T08:05:08.801Z,22.75
2019-05-02T08:10:05.935Z,17.87
2019-05-02T08:12:34.377Z,16.67
2019-05-02T08:15:07.380Z,23.70
2019-05-02T08:17:32.969Z,21.50
2019-05-02T08:20:04.645Z,21.65
2019-05-02T08:22:31.799Z,20.92
2019-05-02T08:25:00.573Z,19.50
2019-05-02T08:27:34.725Z,18.10
2019-05-02T08:30:04.247Z,21.90
2019-05-02T08:32:33.198Z,16.45
2019-05-02T08:35:01.701Z,17.15
2019-05-02T08:37:30.292Z,18.52
2019-05-02T08:40:10.499Z,20.57
2019-05-02T08:42:38.225Z,19.00
2019-05-02T08:45:07.194Z,18.55
2019-05-02T08:47:37.334Z,19.42
2019-05-02T08:50:07.804Z,21.07
2019-05-02T08:52:36.938Z,20.00
2019-05-02T08:55:09.714Z,19.23
2019-05-02T08:57:37.766Z,22.67
2019-05-02T09:00:06.701Z,21.42
2019-05-02T09:02:41.464Z,21.03
2019-05-02T09:05:06.188Z,17.73
2019-05-02T09:07:36.981Z,20.72
2019-05-02T09:10:08.473Z,20.10
2019-05-02T09:12:43.707Z,22.95
2019-05-02T09:15:07.519Z,22.22
2019-05-02T09:17:38.931Z,20.45
2019-05-02T09:20:14.979Z,21.57
2019-05-02T09:22:36.910Z,24.43
2019-05-02T09:25:06.859Z,24.00
2019-05-02T09:30:04.589Z,23.75
2019-05-02T09:35:04.873Z,25.88
2019-05-02T09:37:32.099Z,26.25
2019-05-02T09:40:02.243Z,26.60
2019-05-02T09:42:32.495Z,24.25
2019-05-02T09:45:03.102Z,22.82
2019-05-02T09:47:33.235Z,23.80
2019-05-02T09:50:12.843Z,32.17
2019-05-02T09:55:12.182Z,28.42
2019-05-02T10:00:26.725Z,34.70
2019-05-02T10:02:59.167Z,36.95
2019-05-02T10:05:27.726Z,35.35
2019-05-02T10:07:57.520Z,34.75
2019-05-02T10:10:26.556Z,34.48
2019-05-02T10:12:55.098Z,34.50
2019-05-02T10:15:23.610Z,37.23
2019-05-02T10:17:52.131Z,36.68
2019-05-02T10:20:23.496Z,41.15
2019-05-02T10:25:18.445Z,36.80
2019-05-02T10:27:47.617Z,42.48
2019-05-02T10:30:17.340Z,40.75
2019-05-02T10:32:47.152Z,36.53
2019-05-02T10:35:17.654Z,37.17
2019-05-02T10:37:46.124Z,34.10
2019-05-02T10:40:17.138Z,40.73
2019-05-02T10:45:16.610Z,36.53
2019-05-02T10:47:42.504Z,31.27
2019-05-02T10:50:12.566Z,34.80
2019-05-02T10:52:42.508Z,31.07
2019-05-02T10:55:12.875Z,32.08
2019-05-02T10:57:42.080Z,37.75
2019-05-02T11:00:14.384Z,34.65
2019-05-02T11:03:02.687Z,34.08
2019-05-02T11:05:32.622Z,33.75
2019-05-02T11:10:32.293Z,26.45
2019-05-02T11:13:12.498Z,29.92
2019-05-02T11:15:48.974Z,31.80
2019-05-02T11:18:19.083Z,29.77
2019-05-02T11:20:47.503Z,31.85
2019-05-02T11:23:15.963Z,25.10
2019-05-02T11:25:44.387Z,25.43
2019-05-02T11:28:12.871Z,34.18
2019-05-02T11:30:41.989Z,31.90
2019-05-02T11:33:13.171Z,25.20
2019-05-02T11:35:41.790Z,25.77
2019-05-02T11:38:13.170Z,29.23
2019-05-02T11:40:42.183Z,28.38
2019-05-02T11:43:11.562Z,26.02
2019-05-02T11:45:40.223Z,22.85
2019-05-02T11:48:11.291Z,23.07
2019-05-02T11:50:38.731Z,25.60
2019-05-02T11:53:09.136Z,25.27
2019-05-02T11:55:37.242Z,25.00
2019-05-02T11:58:08.297Z,21.48
2019-05-02T12:00:39.797Z,21.02
2019-05-02T12:03:12.549Z,20.27
2019-05-02T12:05:42.458Z,17.98
2019-05-02T12:08:12.185Z,24.32
2019-05-02T12:13:12.022Z,19.95
2019-05-02T12:15:43.579Z,20.95
2019-05-02T12:18:12.099Z,20.90
2019-05-02T12:20:42.522Z,20.40
2019-05-02T12:23:12.784Z,20.02
2019-05-02T12:25:42.277Z,22.90
2019-05-02T12:28:11.975Z,23.77
2019-05-02T12:33:12.268Z,22.50
2019-05-02T12:35:40.582Z,23.47
2019-05-02T12:38:09.006Z,24.32
2019-05-02T12:40:37.472Z,22.07
2019-05-02T12:43:05.901Z,24.72
2019-05-02T12:45:34.367Z,26.75
2019-05-02T12:48:02.800Z,24.40
2019-05-02T12:50:32.188Z,24.55
2019-05-02T12:53:02.795Z,30.10
2019-05-02T12:55:32.598Z,24.07
2019-05-02T12:58:02.976Z,29.55
2019-05-02T13:00:31.999Z,23.50
2019-05-02T13:03:05.148Z,22.85
2019-05-02T13:05:33.592Z,25.32
2019-05-02T13:08:02.532Z,24.07
2019-05-02T13:10:54.052Z,23.03
2019-05-02T13:13:21.811Z,26.60
2019-05-02T13:15:51.907Z,24.30
2019-05-02T13:18:25.391Z,21.93
2019-05-02T13:20:52.634Z,25.62
2019-05-02T13:23:22.591Z,26.05
2019-05-02T13:25:51.798Z,24.00
2019-05-02T13:28:22.288Z,27.90
2019-05-02T13:33:32.439Z,29.12
2019-05-02T13:36:02.558Z,28.17
2019-05-02T13:38:32.844Z,25.35
2019-05-02T13:41:02.574Z,29.40
2019-05-02T13:43:32.766Z,31.35
2019-05-02T13:46:12.586Z,28.92
2019-05-02T13:51:08.907Z,30.75
2019-05-02T13:53:38.968Z,30.50
2019-05-02T13:56:14.601Z,31.25
2019-05-02T13:58:43.049Z,32.67
2019-05-02T14:01:11.800Z,33.13
2019-05-02T14:03:41.981Z,30.32
2019-05-02T14:06:12.321Z,34.80
2019-05-02T14:08:43.045Z,30.30
2019-05-02T14:11:13.271Z,31.50
2019-05-02T14:13:42.548Z,31.35
2019-05-02T14:16:12.193Z,26.48
2019-05-02T14:18:42.102Z,28.95
2019-05-02T14:21:12.552Z,28.27
2019-05-02T14:26:11.715Z,25.50
2019-05-02T14:28:40.239Z,25.57
2019-05-02T14:31:08.674Z,28.45
2019-05-02T14:33:38.742Z,25.97
2019-05-02T14:36:07.200Z,27.32
2019-05-02T14:38:35.635Z,25.27
2019-05-02T14:41:05.715Z,26.02
2019-05-02T14:43:53.110Z,29.92
2019-05-02T14:46:22.150Z,31.15
2019-05-02T14:48:52.282Z,29.67
2019-05-02T14:51:22.996Z,34.25
2019-05-02T14:53:52.610Z,33.88
2019-05-02T14:56:43.385Z,33.00
2019-05-02T14:59:15.313Z,29.23
2019-05-02T15:01:42.146Z,31.95
2019-05-02T15:04:12.781Z,32.63
2019-05-02T15:06:45.382Z,29.98
2019-05-02T15:09:12.063Z,29.20
2019-05-02T15:14:18.394Z,29.67
2019-05-02T15:16:45.329Z,30.88
2019-05-02T15:19:13.870Z,27.00
2019-05-02T15:21:42.394Z,30.23
2019-05-02T15:24:12.335Z,28.92
2019-05-02T15:26:41.829Z,31.60
2019-05-02T15:29:12.073Z,29.05
2019-05-02T15:31:47.994Z,31.00
2019-05-02T15:34:35.510Z,31.05
2019-05-02T15:37:04.528Z,32.88
2019-05-02T15:42:02.945Z,27.73
2019-05-02T15:44:31.762Z,29.85
2019-05-02T15:47:05.152Z,33.60
2019-05-02T15:52:00.865Z,28.30
2019-05-02T15:54:29.296Z,32.05
2019-05-02T15:57:03.180Z,34.45
2019-05-02T15:59:32.579Z,28.98
2019-05-02T16:02:03.028Z,33.58
2019-05-02T16:04:38.921Z,32.90
2019-05-02T16:07:08.551Z,34.60
2019-05-02T16:09:37.155Z,36.48
2019-05-02T16:12:05.831Z,31.73
2019-05-02T16:14:35.946Z,37.33
2019-05-02T16:17:04.359Z,32.40
2019-05-02T16:19:34.410Z,32.70
2019-05-02T16:24:48.990Z,32.20
2019-05-02T16:29:43.686Z,32.28
2019-05-02T16:32:22.754Z,33.90
2019-05-02T16:34:54.725Z,34.75
2019-05-02T16:37:22.870Z,31.82
2019-05-02T16:39:51.457Z,35.40
2019-05-02T16:42:20.021Z,35.40
2019-05-02T16:44:48.366Z,35.05
2019-05-02T16:47:16.749Z,42.05
2019-05-02T16:49:47.882Z,37.03
2019-05-02T16:54:46.133Z,39.50
2019-05-02T16:57:17.521Z,39.85
2019-05-02T17:02:12.410Z,35.65
2019-05-02T17:04:42.519Z,37.78
2019-05-02T17:09:44.642Z,35.43
2019-05-02T17:12:15.318Z,38.42
2019-05-02T17:14:53.480Z,39.98
2019-05-02T17:17:15.181Z,35.13
2019-05-02T17:22:21.884Z,15.30
2019-05-02T17:24:48.303Z,16.73
2019-05-02T17:27:20.507Z,17.90
2019-05-02T17:29:54.279Z,13.43
2019-05-02T17:32:20.114Z,15.58
2019-05-02T17:34:49.634Z,16.23
2019-05-02T17:37:19.134Z,15.20
2019-05-02T17:39:48.663Z,15.55
2019-05-02T17:42:22.302Z,17.82
2019-05-02T17:44:51.800Z,16.85
2019-05-02T17:47:20.436Z,17.52
2019-05-02T17:49:52.835Z,16.60
2019-05-02T17:52:27.006Z,18.92
2019-05-02T17:54:57.312Z,17.40
2019-05-02T17:57:28.579Z,16.40
2019-05-02T17:59:59.026Z,18.15
2019-05-02T18:02:29.043Z,18.55
2019-05-02T18:07:31.816Z,21.25
2019-05-02T18:09:58.550Z,23.47
2019-05-02T18:12:29.167Z,20.05
2019-05-02T18:15:01.411Z,18.82
2019-05-02T18:17:32.439Z,20.52
2019-05-02T18:20:05.848Z,21.50
2019-05-02T18:22:34.828Z,18.15
2019-05-02T18:25:06.174Z,21.77
2019-05-02T18:30:07.194Z,18.12
2019-05-02T18:32:36.851Z,19.42
2019-05-02T18:35:07.094Z,30.30
2019-05-02T18:37:37.213Z,25.27
2019-05-02T18:40:07.919Z,21.65
2019-05-02T18:42:37.491Z,20.45
2019-05-02T18:45:10.064Z,20.10
2019-05-02T18:47:39.725Z,19.85
2019-05-02T18:50:27.363Z,17.67
2019-05-02T18:52:56.928Z,20.35
2019-05-02T18:55:26.698Z,17.32
2019-05-02T18:58:05.346Z,19.05
2019-05-02T19:00:38.180Z,17.85
2019-05-02T19:03:15.117Z,18.92
2019-05-02T19:05:39.242Z,21.97
2019-05-02T19:08:08.932Z,17.98
2019-05-02T19:10:42.494Z,18.50
2019-05-02T19:13:10.040Z,19.30
2019-05-02T19:15:44.572Z,18.15
2019-05-02T19:18:17.926Z,19.60
2019-05-02T19:20:57.362Z,17.67
2019-05-02T19:23:25.736Z,21.10
2019-05-02T19:25:55.317Z,19.15
2019-05-02T19:28:42.950Z,19.77
2019-05-02T19:31:12.590Z,20.17
2019-05-02T19:33:48.220Z,22.95
2019-05-02T19:36:24.423Z,21.93
2019-05-02T19:38:49.031Z,23.00
2019-05-02T19:41:18.551Z,21.07
2019-05-02T19:43:49.908Z,24.45
2019-05-02T19:46:26.403Z,21.70
2019-05-02T19:48:55.734Z,23.32
2019-05-02T19:51:28.093Z,22.77
2019-05-02T19:53:59.355Z,24.50
2019-05-02T19:56:32.841Z,23.02
2019-05-02T19:58:59.478Z,26.25
2019-05-02T20:01:29.223Z,25.45
2019-05-02T20:04:02.372Z,24.00
2019-05-02T20:06:30.279Z,23.38
2019-05-02T20:09:06.767Z,27.50
2019-05-02T20:11:34.261Z,24.43
2019-05-02T20:14:09.128Z,23.65
2019-05-02T20:16:44.139Z,25.82
2019-05-02T20:19:12.436Z,28.57
2019-05-02T20:21:44.671Z,28.75
2019-05-02T20:24:19.194Z,27.77
2019-05-02T20:26:46.733Z,33.50
2019-05-02T20:29:16.663Z,27.75
2019-05-02T20:31:47.431Z,35.20
2019-05-02T20:34:16.920Z,31.52
2019-05-02T20:36:47.331Z,32.95
2019-05-02T20:39:16.920Z,37.78
2019-05-02T20:41:46.502Z,38.25
2019-05-02T20:44:16.029Z,39.48
2019-05-02T20:46:45.538Z,38.73
2019-05-02T20:49:15.031Z,40.48
2019-05-02T20:51:44.529Z,39.63
2019-05-02T20:54:14.107Z,43.58
2019-05-02T20:56:43.672Z,41.88
2019-05-02T20:59:13.408Z,37.88
2019-05-02T21:01:43.081Z,40.00
2019-05-02T21:04:12.740Z,39.60
2019-05-02T21:06:44.250Z,42.35
2019-05-02T21:09:18.491Z,47.73
2019-05-02T21:11:49.697Z,43.08
2019-05-02T21:14:19.311Z,47.65
2019-05-02T21:16:48.936Z,47.50
2019-05-02T21:19:18.458Z,49.63
2019-05-02T21:21:48.180Z,47.10
2019-05-02T21:24:17.714Z,48.42
2019-05-02T21:26:47.202Z,49.77
2019-05-02T21:29:16.707Z,47.50
2019-05-02T21:31:46.275Z,53.28
2019-05-02T21:34:15.939Z,54.10
2019-05-02T21:36:45.503Z,50.17
2019-05-02T21:39:15.151Z,51.42
2019-05-02T21:41:44.633Z,48.63
2019-05-02T21:44:14.167Z,54.75
2019-05-02T21:46:43.729Z,53.08
2019-05-02T21:49:14.978Z,52.33
2019-05-02T21:51:48.903Z,59.63
2019-05-02T21:54:28.762Z,57.13
2019-05-02T21:57:06.089Z,57.50
2019-05-02T21:59:35.929Z,61.15
2019-05-02T22:02:07.712Z,59.70
2019-05-02T22:04:37.246Z,57.62
2019-05-02T22:07:06.890Z,56.95
2019-05-02T22:09:36.590Z,62.58
2019-05-02T22:12:06.290Z,58.00
2019-05-02T22:14:36.022Z,60.50
2019-05-02T22:17:05.626Z,71.37
2019-05-02T22:19:35.183Z,63.28
2019-05-02T22:22:04.752Z,61.00
2019-05-02T22:24:34.346Z,70.17
2019-05-02T22:27:03.899Z,65.65
2019-05-02T22:29:33.423Z,64.32
2019-05-02T22:32:03.131Z,65.28
2019-05-02T22:34:32.794Z,70.00
2019-05-02T22:37:03.717Z,63.00
2019-05-02T22:39:42.085Z,63.25
2019-05-02T22:42:12.811Z,68.42
2019-05-02T22:44:42.538Z,64.72
2019-05-02T22:47:14.008Z,64.55
2019-05-02T22:49:43.231Z,59.83
2019-05-02T22:52:14.365Z,64.05
2019-05-02T22:54:44.118Z,66.17
2019-05-02T22:57:14.318Z,63.68
2019-05-02T22:59:44.074Z,64.82
2019-05-02T23:02:14.217Z,65.92
2019-05-02T23:04:43.794Z,62.45
2019-05-02T23:07:13.431Z,67.30
2019-05-02T23:09:43.677Z,65.28
2019-05-02T23:12:14.375Z,64.75
2019-05-02T23:14:43.873Z,67.62
2019-05-02T23:17:13.422Z,66.05
2019-05-02T23:19:43.012Z,69.50
2019-05-02T23:22:12.797Z,69.97
2019-05-02T23:27:31.722Z,68.78
2019-05-02T23:30:02.913Z,76.15
2019-05-02T23:32:34.130Z,73.95
2019-05-02T23:35:04.170Z,74.97
2019-05-02T23:40:02.384Z,76.77
2019-05-02T23:42:31.960Z,78.90
2019-05-02T23:45:02.853Z,71.05
2019-05-02T23:47:33.406Z,73.97
2019-05-02T23:50:03.146Z,77.10
2019-05-02T23:52:32.976Z,76.53
2019-05-02T23:55:03.031Z,72.40
2019-05-02T23:57:32.655Z,78.67
